Time;durP1;ratioP1;P1;durP2;ratioP2;P2;SDS_P1;SDS_P2;PMS_P1;PMS_P2;Temp;Humidity;BMP_temperature;BMP_pressure;BME280_temperature;BME280_humidity;BME280_pressure;Samples;Min_cycle;Max_cycle;Signal;HPM_P1;HPM_P2
2020/12/19 00:02:00;;;;;;;17.93;16.43;;;3.60;99.90;;;;;;4978859;28;20499;-78
2020/12/19 00:04:26;;;;;;;17.87;16.40;;;3.60;99.90;;;;;;4973395;28;20480;-77
2020/12/19 00:06:52;;;;;;;17.87;16.27;;;3.60;99.90;;;;;;4977567;28;20509;-78
2020/12/19 00:09:19;;;;;;;18.73;17.03;;;3.60;99.90;;;;;;4971493;28;20476;-77
2020/12/19 00:11:46;;;;;;;18.17;16.77;;;3.60;99.90;;;;;;4977309;28;20459;-77
2020/12/19 00:14:12;;;;;;;18.10;16.60;;;3.60;99.90;;;;;;4972907;28;20438;-78
2020/12/19 00:16:38;;;;;;;18.50;16.97;;;3.60;99.90;;;;;;4976834;28;20831;-78
2020/12/19 00:19:06;;;;;;;18.20;16.80;;;3.60;99.90;;;;;;4977272;28;20532;-76
2020/12/19 00:21:33;;;;;;;18.13;16.63;;;3.60;99.90;;;;;;4972860;28;20531;-77
2020/12/19 00:23:59;;;;;;;18.67;17.17;;;3.60;99.90;;;;;;4977001;28;20545;-76
2020/12/19 00:26:32;;;;;;;19.50;17.67;;;3.70;99.90;;;;;;4970219;28;20455;-77
2020/12/19 00:28:59;;;;;;;18.93;17.33;;;3.70;99.90;;;;;;4977680;28;20606;-78
2020/12/19 00:31:25;;;;;;;18.57;16.97;;;3.70;99.90;;;;;;4971582;28;21008;-77
2020/12/19 00:33:52;;;;;;;17.70;16.23;;;3.70;99.90;;;;;;4963185;28;21079;-77
2020/12/19 00:36:18;;;;;;;19.57;17.87;;;3.70;99.90;;;;;;4968120;28;20470;-76
2020/12/19 00:38:45;;;;;;;19.30;17.70;;;3.70;99.90;;;;;;5016736;23;20490;-78
2020/12/19 00:41:17;;;;;;;18.90;17.20;;;3.70;99.90;;;;;;4997600;28;20456;-78
2020/12/19 00:43:43;;;;;;;19.30;17.70;;;3.70;99.90;;;;;;4999023;28;20817;-78
2020/12/19 00:46:11;;;;;;;19.90;18.20;;;3.70;99.90;;;;;;4997700;28;20485;-78
2020/12/19 00:48:38;;;;;;;18.93;17.43;;;3.70;99.90;;;;;;4978963;28;20485;-78
2020/12/19 00:51:04;;;;;;;19.17;17.57;;;3.60;99.90;;;;;;4978168;28;20444;-77
2020/12/19 00:53:31;;;;;;;19.03;17.50;;;3.60;99.90;;;;;;4982810;28;20477;-78
2020/12/19 00:55:57;;;;;;;19.70;17.97;;;3.60;99.90;;;;;;4986120;28;20488;-78
2020/12/19 00:58:23;;;;;;;18.63;17.00;;;3.60;99.90;;;;;;4974155;28;21028;-78
2020/12/19 01:00:49;;;;;;;21.27;19.47;;;3.60;99.90;;;;;;4976065;28;20928;-78
2020/12/19 01:03:16;;;;;;;17.53;16.03;;;3.50;99.90;;;;;;4977057;28;20467;-78
2020/12/19 01:05:43;;;;;;;17.97;16.47;;;3.40;99.90;;;;;;4970104;28;20442;-77
2020/12/19 01:08:09;;;;;;;18.93;17.43;;;3.50;99.90;;;;;;4974563;28;20483;-78
2020/12/19 01:10:35;;;;;;;18.57;16.90;;;3.40;99.90;;;;;;4972938;28;20429;-78
2020/12/19 01:13:02;;;;;;;19.53;17.83;;;3.40;99.90;;;;;;4973607;28;20439;-78
2020/12/19 01:15:28;;;;;;;19.93;18.13;;;3.40;99.90;;;;;;4968415;28;20481;-78
2020/12/19 01:17:54;;;;;;;19.37;17.77;;;3.30;99.90;;;;;;4977661;28;20546;-78
2020/12/19 01:20:21;;;;;;;18.10;16.63;;;3.30;99.90;;;;;;4967218;28;20508;-77
2020/12/19 01:22:47;;;;;;;18.63;17.07;;;3.30;99.90;;;;;;4973395;28;20521;-77
2020/12/19 01:25:14;;;;;;;19.17;17.57;;;3.20;99.90;;;;;;4973177;28;20938;-78
2020/12/19 01:27:40;;;;;;;19.63;17.83;;;3.20;99.90;;;;;;4989553;28;20520;-78
2020/12/19 01:30:06;;;;;;;18.97;17.40;;;3.10;99.90;;;;;;4973255;28;20492;-78
2020/12/19 01:32:33;;;;;;;19.13;17.57;;;3.00;99.90;;;;;;4979021;28;20473;-78
2020/12/19 01:34:59;;;;;;;20.53;18.73;;;3.00;99.90;;;;;;4981933;28;20531;-79
2020/12/19 01:37:26;;;;;;;19.87;18.17;;;3.00;99.90;;;;;;4972332;28;20511;-78
2020/12/19 01:39:52;;;;;;;18.73;17.17;;;3.00;99.90;;;;;;4972880;28;20506;-77
2020/12/19 01:42:19;;;;;;;19.03;17.43;;;3.00;99.90;;;;;;4979362;28;20439;-77
2020/12/19 01:44:45;;;;;;;19.33;17.73;;;2.90;99.90;;;;;;4982581;28;20484;-78
2020/12/19 01:47:12;;;;;;;20.30;18.60;;;2.90;99.90;;;;;;4987256;28;20506;-78
2020/12/19 01:49:38;;;;;;;21.33;19.33;;;2.80;99.90;;;;;;4979246;28;20488;-78
2020/12/19 01:52:06;;;;;;;20.57;18.90;;;2.80;99.90;;;;;;4983940;28;20950;-77
2020/12/19 01:54:33;;;;;;;21.70;20.00;;;2.80;99.90;;;;;;4973304;28;20957;-78
2020/12/19 01:57:01;;;;;;;21.77;19.67;;;2.80;99.90;;;;;;4989652;28;20503;-77
2020/12/19 01:59:28;;;;;;;20.17;18.47;;;2.70;99.90;;;;;;4974647;28;20939;-77
2020/12/19 02:01:56;;;;;;;21.00;19.30;;;2.60;99.90;;;;;;4990128;28;20451;-78
2020/12/19 02:04:24;;;;;;;22.07;20.13;;;2.60;99.90;;;;;;4976683;28;20456;-78
2020/12/19 02:06:52;;;;;;;22.27;20.23;;;2.60;99.90;;;;;;4974818;28;20429;-77
2020/12/19 02:09:20;;;;;;;21.60;19.70;;;2.60;99.90;;;;;;4972548;28;20474;-78
2020/12/19 02:11:48;;;;;;;20.47;18.77;;;2.60;99.90;;;;;;4971146;28;20463;-77
2020/12/19 02:14:15;;;;;;;22.20;20.37;;;2.60;99.90;;;;;;4974810;28;20712;-77
2020/12/19 02:16:53;;;;;;;21.73;19.93;;;2.50;99.90;;;;;;4980945;28;20485;-78
2020/12/19 02:19:19;;;;;;;23.00;21.00;;;2.50;99.90;;;;;;4971442;28;20476;-78
2020/12/19 02:21:46;;;;;;;21.50;19.77;;;2.60;99.90;;;;;;4967349;28;20488;-77
2020/12/19 02:24:13;;;;;;;21.87;20.17;;;2.60;99.90;;;;;;4978663;28;20496;-78
2020/12/19 02:26:39;;;;;;;21.60;19.70;;;2.60;99.90;;;;;;4986757;28;20453;-78
2020/12/19 02:29:05;;;;;;;23.43;21.30;;;2.60;99.90;;;;;;4985548;28;20509;-78
2020/12/19 02:31:32;;;;;;;20.47;18.77;;;2.60;99.90;;;;;;4978672;28;20960;-77
2020/12/19 02:33:58;;;;;;;21.73;19.93;;;2.60;99.90;;;;;;4980855;28;20565;-78
2020/12/19 02:36:24;;;;;;;22.37;20.50;;;2.50;99.90;;;;;;4973527;28;20478;-78
2020/12/19 02:38:50;;;;;;;22.07;20.23;;;2.60;99.90;;;;;;4976251;28;20468;-79
2020/12/19 02:41:18;;;;;;;20.40;18.83;;;2.50;99.90;;;;;;4965810;28;21020;-78
2020/12/19 02:43:51;;;;;;;22.00;20.20;;;2.50;99.90;;;;;;4973822;28;20979;-78
2020/12/19 02:46:18;;;;;;;19.90;18.30;;;2.50;99.90;;;;;;4987974;28;20452;-77
2020/12/19 02:48:44;;;;;;;20.63;18.87;;;2.40;99.90;;;;;;4972873;28;20491;-78
2020/12/19 02:51:10;;;;;;;20.70;19.10;;;2.40;99.90;;;;;;4978481;28;20500;-77
2020/12/19 02:53:36;;;;;;;21.80;20.00;;;2.40;99.90;;;;;;4982707;28;20481;-77
2020/12/19 02:56:03;;;;;;;20.47;18.83;;;2.30;99.90;;;;;;4974594;28;20509;-77
2020/12/19 02:58:30;;;;;;;20.73;18.93;;;2.30;99.90;;;;;;4980115;28;20494;-78
2020/12/19 03:00:56;;;;;;;19.67;18.17;;;2.30;99.90;;;;;;4988410;28;20542;-78
2020/12/19 03:03:22;;;;;;;21.67;19.60;;;2.30;99.90;;;;;;4973474;28;20465;-77
2020/12/19 03:05:49;;;;;;;20.77;19.03;;;2.30;99.90;;;;;;4988189;28;20547;-78
2020/12/19 03:08:15;;;;;;;22.50;20.60;;;2.30;99.90;;;;;;4978260;28;20504;-77
2020/12/19 03:10:41;;;;;;;22.70;20.80;;;2.30;99.90;;;;;;4980263;28;21032;-78
2020/12/19 03:13:08;;;;;;;21.27;19.43;;;2.30;99.90;;;;;;4976123;28;21003;-77
2020/12/19 03:15:35;;;;;;;21.50;19.60;;;2.20;99.90;;;;;;4965456;28;20457;-78
2020/12/19 03:18:01;;;;;;;22.90;20.77;;;2.20;99.90;;;;;;4968938;28;20490;-77
2020/12/19 03:20:27;;;;;;;21.70;20.00;;;2.20;99.90;;;;;;4986878;28;21039;-77
2020/12/19 03:22:54;;;;;;;22.63;20.50;;;2.20;99.90;;;;;;4988094;28;20483;-78
2020/12/19 03:25:20;;;;;;;21.80;19.90;;;2.20;99.90;;;;;;4984727;28;20511;-77
2020/12/19 03:27:46;;;;;;;23.10;21.23;;;2.30;99.90;;;;;;4966736;28;20509;-78
2020/12/19 03:30:12;;;;;;;21.53;19.73;;;2.40;99.90;;;;;;4985734;28;20493;-78
2020/12/19 03:32:40;;;;;;;21.60;19.63;;;2.40;99.90;;;;;;4976705;28;20442;-77
2020/12/19 03:35:06;;;;;;;21.83;19.90;;;2.40;99.90;;;;;;4980046;28;20503;-78
2020/12/19 03:37:33;;;;;;;22.57;20.47;;;2.40;99.90;;;;;;4970165;28;20513;-77
2020/12/19 03:39:59;;;;;;;22.67;20.67;;;2.40;99.90;;;;;;4971706;28;20474;-77
2020/12/19 03:42:26;;;;;;;22.67;20.70;;;2.40;99.90;;;;;;4973637;28;20440;-78
2020/12/19 03:44:52;;;;;;;22.53;20.60;;;2.40;99.90;;;;;;4983040;28;20495;-77
2020/12/19 03:47:18;;;;;;;22.43;20.50;;;2.40;99.90;;;;;;4976007;28;20504;-76
2020/12/19 03:49:45;;;;;;;21.47;19.67;;;2.40;99.90;;;;;;4973579;28;20476;-77
2020/12/19 03:52:11;;;;;;;22.43;20.43;;;2.40;99.90;;;;;;4971719;28;20480;-77
2020/12/19 03:54:38;;;;;;;20.87;19.17;;;2.30;99.90;;;;;;4976717;28;20493;-76
2020/12/19 03:57:04;;;;;;;21.13;19.33;;;2.30;99.90;;;;;;4962356;28;20538;-76
2020/12/19 03:59:30;;;;;;;20.63;18.73;;;2.20;99.90;;;;;;4971805;28;20556;-77
2020/12/19 04:01:56;;;;;;;21.20;19.40;;;2.20;99.90;;;;;;4979885;28;20468;-77
2020/12/19 04:04:23;;;;;;;21.20;19.50;;;2.20;99.90;;;;;;4966402;28;20536;-77
2020/12/19 04:06:51;;;;;;;21.57;19.87;;;2.20;99.90;;;;;;4961595;28;20969;-77
2020/12/19 04:09:17;;;;;;;21.47;19.60;;;2.10;99.90;;;;;;4971769;28;20485;-76
2020/12/19 04:11:43;;;;;;;20.90;19.20;;;2.10;99.90;;;;;;4990329;28;21068;-77
2020/12/19 04:14:09;;;;;;;22.50;20.70;;;2.00;99.90;;;;;;4975298;28;20481;-77
2020/12/19 04:16:36;;;;;;;21.13;19.43;;;2.00;99.90;;;;;;4975766;28;20443;-76
2020/12/19 04:19:02;;;;;;;21.83;19.83;;;2.00;99.90;;;;;;4978710;28;20548;-76
2020/12/19 04:21:28;;;;;;;20.63;18.83;;;1.90;99.90;;;;;;4974419;28;20497;-76
2020/12/19 04:23:56;;;;;;;22.03;20.03;;;1.90;99.90;;;;;;4983399;28;20860;-77
2020/12/19 04:26:22;;;;;;;21.97;20.17;;;1.90;99.90;;;;;;4979842;28;20429;-77
2020/12/19 04:28:48;;;;;;;22.13;20.27;;;1.90;99.90;;;;;;4979986;28;20577;-77
2020/12/19 04:31:14;;;;;;;21.97;20.10;;;1.90;99.90;;;;;;4979825;28;20502;-77
2020/12/19 04:33:41;;;;;;;22.57;20.57;;;1.90;99.90;;;;;;4990120;28;20593;-78
2020/12/19 04:36:07;;;;;;;20.70;18.97;;;1.90;99.90;;;;;;4975752;28;20506;-76
2020/12/19 04:38:33;;;;;;;21.17;19.33;;;1.90;99.90;;;;;;4973111;28;20512;-78
2020/12/19 04:41:00;;;;;;;21.27;19.57;;;1.90;99.90;;;;;;4973870;28;20588;-76
2020/12/19 04:43:27;;;;;;;21.93;20.07;;;1.90;99.90;;;;;;4974789;28;20939;-77
2020/12/19 04:45:55;;;;;;;22.07;20.27;;;1.90;99.90;;;;;;4971950;28;20517;-78
2020/12/19 04:48:23;;;;;;;21.53;19.50;;;1.90;99.90;;;;;;4973286;28;20473;-77
2020/12/19 04:50:51;;;;;;;21.17;19.33;;;1.90;99.90;;;;;;4975121;28;20428;-78
2020/12/19 04:53:18;;;;;;;20.80;19.20;;;1.90;99.90;;;;;;4974521;28;20468;-78
2020/12/19 04:55:46;;;;;;;21.37;19.47;;;1.90;99.90;;;;;;4969130;28;20819;-78
2020/12/19 04:58:14;;;;;;;21.47;19.63;;;1.90;99.90;;;;;;4973273;28;20961;-77
2020/12/19 05:00:42;;;;;;;21.20;19.40;;;1.90;99.90;;;;;;4974719;28;20942;-77
2020/12/19 05:03:08;;;;;;;19.70;18.27;;;1.90;99.90;;;;;;4974806;28;20530;-78
2020/12/19 05:05:36;;;;;;;20.03;18.53;;;1.90;99.90;;;;;;4973357;28;20450;-78
2020/12/19 05:08:03;;;;;;;19.63;17.97;;;1.90;99.90;;;;;;4973073;28;20507;-79
2020/12/19 05:10:29;;;;;;;21.93;20.03;;;1.90;99.90;;;;;;4973928;28;20442;-78
2020/12/19 05:12:55;;;;;;;19.57;18.07;;;1.80;99.90;;;;;;4974533;28;20905;-77
2020/12/19 05:15:23;;;;;;;18.83;17.47;;;1.80;99.90;;;;;;4978568;28;20534;-76
2020/12/19 05:17:53;;;;;;;19.50;17.93;;;1.70;99.90;;;;;;4973364;28;21029;-77
2020/12/19 05:20:20;;;;;;;21.53;19.53;;;1.70;99.90;;;;;;4973811;28;20501;-77
2020/12/19 05:22:48;;;;;;;20.80;19.10;;;1.70;99.90;;;;;;4977734;28;20451;-76
2020/12/19 05:25:16;;;;;;;19.70;18.20;;;1.70;99.90;;;;;;4975917;28;20471;-79
2020/12/19 05:27:44;;;;;;;20.27;18.63;;;1.70;99.90;;;;;;4977156;28;20461;-77
2020/12/19 05:30:10;;;;;;;19.53;18.10;;;1.70;99.90;;;;;;4989223;28;20540;-76
2020/12/19 05:32:43;;;;;;;20.10;18.50;;;1.70;99.90;;;;;;4979077;28;20519;-78
2020/12/19 05:35:10;;;;;;;19.90;18.40;;;1.70;99.90;;;;;;4990365;28;20481;-77
2020/12/19 05:37:37;;;;;;;21.13;19.13;;;1.70;99.90;;;;;;4973029;28;20567;-78
2020/12/19 05:40:07;;;;;;;20.17;18.57;;;1.60;99.90;;;;;;4989168;28;20570;-79
2020/12/19 05:42:34;;;;;;;19.97;18.10;;;1.60;99.90;;;;;;4976632;28;20465;-78
2020/12/19 05:45:00;;;;;;;21.03;19.33;;;1.60;99.90;;;;;;4974606;28;20529;-78
2020/12/19 05:47:27;;;;;;;19.77;18.17;;;1.60;99.90;;;;;;4984500;28;20548;-78
2020/12/19 05:49:54;;;;;;;20.80;19.10;;;1.70;99.90;;;;;;4989805;28;20462;-78
2020/12/19 05:52:23;;;;;;;20.63;18.87;;;1.70;99.90;;;;;;4980993;28;20551;-78
2020/12/19 05:54:52;;;;;;;20.97;19.27;;;1.60;99.90;;;;;;4966496;28;20511;-78
2020/12/19 05:57:20;;;;;;;20.83;19.13;;;1.60;99.90;;;;;;4979942;28;21078;-78
2020/12/19 05:59:48;;;;;;;22.40;20.50;;;1.60;99.90;;;;;;4973204;28;20569;-77
2020/12/19 06:02:17;;;;;;;21.60;19.80;;;1.60;99.90;;;;;;4979417;28;20540;-79
2020/12/19 06:04:46;;;;;;;22.80;20.90;;;1.60;99.90;;;;;;4979030;28;20474;-77
2020/12/19 06:07:14;;;;;;;21.50;19.80;;;1.60;99.90;;;;;;4979443;28;20880;-78
2020/12/19 06:09:42;;;;;;;21.67;19.87;;;1.60;99.90;;;;;;4971705;28;20467;-77
2020/12/19 06:12:13;;;;;;;21.67;20.03;;;1.50;99.90;;;;;;4988281;28;20560;-77
2020/12/19 06:14:41;;;;;;;22.37;20.47;;;1.50;99.90;;;;;;4974869;28;20832;-77
2020/12/19 06:17:15;;;;;;;21.00;19.37;;;1.50;99.90;;;;;;4988543;28;20508;-77
2020/12/19 06:19:43;;;;;;;21.43;19.70;;;1.50;99.90;;;;;;4983862;28;20908;-77
2020/12/19 06:22:10;;;;;;;20.93;19.13;;;1.40;99.90;;;;;;4978627;28;20461;-78
2020/12/19 06:24:42;;;;;;;20.23;18.60;;;1.40;99.90;;;;;;4981194;28;20480;-77
2020/12/19 06:27:24;;;;;;;20.93;19.33;;;1.40;99.90;;;;;;4987846;28;20932;-77
2020/12/19 06:29:51;;;;;;;19.60;18.20;;;1.40;99.90;;;;;;4968126;28;20467;-77
2020/12/19 06:32:19;;;;;;;21.37;19.67;;;1.30;99.90;;;;;;4971908;28;20989;-77
2020/12/19 06:34:57;;;;;;;20.97;19.37;;;1.30;99.90;;;;;;4979010;28;20531;-77
2020/12/19 06:37:26;;;;;;;20.87;19.23;;;1.30;99.90;;;;;;4975225;28;20519;-78
2020/12/19 06:40:10;;;;;;;20.63;19.00;;;1.30;99.90;;;;;;4978058;28;20519;-78
2020/12/19 06:42:37;;;;;;;21.00;19.13;;;1.30;99.90;;;;;;4977693;28;20473;-77
2020/12/19 06:45:28;;;;;;;19.63;18.27;;;1.30;99.90;;;;;;4972485;28;20537;-77
2020/12/19 06:47:56;;;;;;;21.50;19.60;;;1.20;99.90;;;;;;4943669;28;20558;-76
2020/12/19 06:50:23;;;;;;;19.57;18.23;;;1.20;99.90;;;;;;4955905;28;20568;-76
2020/12/19 06:52:57;;;;;;;20.87;19.17;;;1.20;99.90;;;;;;4958419;28;20537;-76
2020/12/19 06:55:25;;;;;;;20.73;19.00;;;1.20;99.90;;;;;;4957406;28;20565;-77
2020/12/19 06:57:53;;;;;;;21.50;19.50;;;1.20;99.90;;;;;;4968618;28;20893;-77
2020/12/19 07:00:21;;;;;;;20.90;19.13;;;1.20;99.90;;;;;;4980179;28;20504;-78
2020/12/19 07:02:54;;;;;;;20.57;18.97;;;1.10;99.90;;;;;;4971494;28;20450;-77
2020/12/19 07:05:23;;;;;;;21.10;19.60;;;1.10;99.90;;;;;;4978471;28;20437;-79
2020/12/19 07:07:50;;;;;;;21.60;19.90;;;1.10;99.90;;;;;;4973520;28;21185;-78
2020/12/19 07:10:16;;;;;;;22.27;20.50;;;1.10;99.90;;;;;;4978724;28;20887;-79
2020/12/19 07:12:44;;;;;;;22.63;20.57;;;1.20;99.90;;;;;;4983700;28;20574;-78
2020/12/19 07:15:12;;;;;;;22.50;20.60;;;1.20;99.90;;;;;;4974293;28;20448;-78
2020/12/19 07:17:46;;;;;;;21.57;19.97;;;1.20;99.90;;;;;;4972020;28;20568;-77
2020/12/19 07:20:12;;;;;;;21.37;19.57;;;1.20;99.90;;;;;;4987996;28;21081;-77
2020/12/19 07:22:39;;;;;;;22.30;20.40;;;1.20;99.90;;;;;;4975022;28;20531;-76
2020/12/19 07:25:06;;;;;;;22.57;20.83;;;1.30;99.90;;;;;;4969466;28;20514;-76
2020/12/19 07:27:32;;;;;;;22.00;20.10;;;1.30;99.90;;;;;;4971118;28;20500;-79
2020/12/19 07:29:59;;;;;;;22.23;20.47;;;1.30;99.90;;;;;;4968141;28;20528;-81
2020/12/19 07:32:26;;;;;;;20.83;19.20;;;1.30;99.90;;;;;;4971483;28;20442;-77
2020/12/19 07:34:54;;;;;;;21.37;19.73;;;1.30;99.90;;;;;;4978772;28;20549;-77
2020/12/19 07:37:21;;;;;;;22.47;20.73;;;1.30;99.90;;;;;;4983060;28;21019;-78
2020/12/19 07:39:47;;;;;;;22.30;20.50;;;1.30;99.90;;;;;;4980566;28;20452;-77
2020/12/19 07:42:14;;;;;;;21.70;19.90;;;1.30;99.90;;;;;;4981155;28;20544;-76
2020/12/19 07:44:41;;;;;;;23.27;21.33;;;1.40;99.90;;;;;;4975895;28;20429;-77
2020/12/19 07:47:10;;;;;;;22.50;20.67;;;1.40;99.90;;;;;;4974305;28;20506;-76
2020/12/19 07:49:43;;;;;;;23.00;21.03;;;1.40;99.90;;;;;;4963180;28;20528;-76
2020/12/19 07:52:15;;;;;;;21.77;20.10;;;1.50;99.90;;;;;;4961295;28;20482;-76
2020/12/19 07:54:50;;;;;;;20.87;19.27;;;1.50;99.90;;;;;;4977126;28;20425;-76
2020/12/19 07:57:18;;;;;;;23.40;21.43;;;1.60;99.90;;;;;;4975857;28;20907;-76
2020/12/19 07:59:45;;;;;;;22.57;20.63;;;1.70;99.90;;;;;;4977503;28;20540;-78
2020/12/19 08:02:15;;;;;;;21.43;19.63;;;1.80;99.90;;;;;;4978244;28;20877;-78
2020/12/19 08:04:48;;;;;;;22.17;20.23;;;2.00;99.90;;;;;;4970451;28;20461;-77
2020/12/19 08:07:14;;;;;;;20.93;19.20;;;2.30;99.90;;;;;;4980619;28;20513;-77
2020/12/19 08:09:40;;;;;;;21.23;19.53;;;2.70;99.90;;;;;;4968614;28;20543;-77
2020/12/19 08:12:09;;;;;;;21.87;19.80;;;3.10;99.90;;;;;;4970254;28;20480;-78
2020/12/19 08:14:36;;;;;;;15.27;13.57;;;3.30;99.90;;;;;;4970902;28;20541;-77
2020/12/19 08:17:06;;;;;;;13.80;10.70;;;3.40;99.90;;;;;;4987091;28;20488;-77
2020/12/19 08:19:38;;;;;;;13.50;10.00;;;3.60;99.90;;;;;;4969050;28;20517;-77
2020/12/19 08:22:06;;;;;;;14.53;10.30;;;3.70;99.90;;;;;;4980286;28;20476;-77
2020/12/19 08:24:34;;;;;;;12.90;8.67;;;3.60;99.90;;;;;;4977009;28;20472;-77
2020/12/19 08:27:36;;;;;;;18.30;16.77;;;3.70;99.90;;;;;;4980540;28;20476;-76
2020/12/19 08:30:07;;;;;;;16.53;15.03;;;3.70;99.90;;;;;;4978409;28;20441;-76
2020/12/19 08:32:35;;;;;;;14.97;13.57;;;4.00;99.90;;;;;;4976046;28;20522;-76
2020/12/19 08:35:03;;;;;;;15.07;13.73;;;4.20;99.90;;;;;;4978028;28;20445;-76
2020/12/19 08:37:29;;;;;;;14.00;12.70;;;4.40;99.90;;;;;;4986216;28;21086;-78
2020/12/19 08:40:04;;;;;;;16.30;14.77;;;4.70;99.90;;;;;;4989909;28;20481;-77
2020/12/19 08:42:30;;;;;;;17.77;16.47;;;5.10;99.90;;;;;;4968000;28;20519;-80
2020/12/19 08:45:20;;;;;;;16.23;14.93;;;5.20;99.90;;;;;;4977832;28;20456;-79
2020/12/19 08:47:50;;;;;;;11.43;10.43;;;5.30;99.90;;;;;;4977069;28;20245;-78
2020/12/19 08:50:21;;;;;;;8.67;7.43;;;5.40;99.90;;;;;;4975876;28;20673;-78
2020/12/19 08:52:48;;;;;;;15.60;14.40;;;5.40;99.90;;;;;;4970928;28;20621;-78
2020/12/19 08:55:14;;;;;;;15.43;14.13;;;5.40;99.90;;;;;;4974061;28;20293;-78
2020/12/19 08:57:43;;;;;;;13.33;12.07;;;5.40;99.90;;;;;;4972734;28;20250;-78
2020/12/19 09:00:13;;;;;;;13.57;12.27;;;5.30;99.90;;;;;;4979891;28;20707;-78
2020/12/19 09:02:41;;;;;;;14.40;13.17;;;5.40;99.90;;;;;;4971185;28;20202;-77
2020/12/19 09:05:08;;;;;;;14.97;13.67;;;5.40;99.90;;;;;;4975143;28;20194;-77
2020/12/19 09:07:35;;;;;;;13.13;12.20;;;5.40;99.90;;;;;;4975975;28;21621;-78
2020/12/19 09:10:21;;;;;;;14.90;13.70;;;5.50;99.90;;;;;;4980196;28;20280;-78
2020/12/19 09:12:47;;;;;;;14.47;13.37;;;5.50;99.90;;;;;;4976071;28;20285;-77
2020/12/19 09:15:17;;;;;;;15.63;14.43;;;5.50;99.90;;;;;;4975936;28;20293;-77
2020/12/19 09:17:44;;;;;;;15.87;14.67;;;5.40;99.90;;;;;;4980272;28;20257;-78
2020/12/19 09:20:10;;;;;;;15.97;14.77;;;5.30;99.90;;;;;;4967074;28;20298;-78
2020/12/19 09:22:37;;;;;;;15.60;14.40;;;5.20;99.90;;;;;;4989928;28;20245;-78
2020/12/19 09:25:03;;;;;;;15.57;14.47;;;5.10;99.90;;;;;;4977423;28;20225;-78
2020/12/19 09:27:29;;;;;;;15.97;14.73;;;5.10;99.90;;;;;;4974606;28;20770;-77
2020/12/19 09:29:56;;;;;;;16.30;15.00;;;5.10;99.90;;;;;;4974321;28;20290;-77
2020/12/19 09:32:22;;;;;;;17.30;15.87;;;5.10;99.90;;;;;;4970640;28;20281;-77
2020/12/19 09:34:48;;;;;;;8.93;8.03;;;5.10;99.90;;;;;;4989514;28;20293;-77
2020/12/19 09:37:15;;;;;;;10.37;9.47;;;5.00;99.90;;;;;;4977189;28;20344;-77
2020/12/19 09:39:42;;;;;;;9.30;8.30;;;5.00;99.90;;;;;;4973843;28;20696;-78
2020/12/19 09:42:08;;;;;;;13.00;11.93;;;5.00;99.90;;;;;;4973180;28;20481;-78
2020/12/19 09:44:34;;;;;;;16.93;15.70;;;5.00;99.90;;;;;;4989177;28;20293;-78
2020/12/19 09:47:01;;;;;;;12.00;10.90;;;5.00;99.90;;;;;;4981400;28;20198;-77
2020/12/19 09:49:27;;;;;;;10.10;8.67;;;5.00;99.90;;;;;;4971588;28;20285;-78
2020/12/19 09:51:53;;;;;;;8.17;7.37;;;5.00;99.90;;;;;;4972493;28;20277;-78
2020/12/19 09:54:19;;;;;;;14.40;13.10;;;5.10;99.90;;;;;;4972502;28;20479;-78
2020/12/19 09:56:46;;;;;;;10.63;8.20;;;5.10;99.90;;;;;;4965154;28;20231;-77
2020/12/19 09:59:13;;;;;;;13.50;12.33;;;5.20;99.90;;;;;;4966700;28;20859;-78
2020/12/19 10:01:39;;;;;;;7.70;6.90;;;5.30;99.90;;;;;;4966777;28;20357;-77
2020/12/19 10:04:05;;;;;;;15.20;13.90;;;5.40;99.90;;;;;;4973134;28;20429;-77
2020/12/19 10:06:32;;;;;;;13.97;12.50;;;5.40;99.90;;;;;;4981330;28;20290;-77
2020/12/19 10:08:58;;;;;;;12.83;11.73;;;5.50;99.90;;;;;;4979796;28;20252;-78
2020/12/19 10:11:25;;;;;;;12.50;11.40;;;5.50;99.90;;;;;;4972754;28;20198;-77
2020/12/19 10:13:52;;;;;;;8.77;7.23;;;5.60;99.90;;;;;;4970875;28;20195;-78
2020/12/19 10:16:18;;;;;;;12.43;11.27;;;5.60;99.90;;;;;;4973784;28;20280;-78
2020/12/19 10:18:44;;;;;;;15.50;14.37;;;5.80;99.90;;;;;;4984785;28;20261;-78
2020/12/19 10:21:11;;;;;;;8.17;6.70;;;5.80;99.90;;;;;;4978826;28;20269;-78
2020/12/19 10:23:38;;;;;;;8.13;7.30;;;5.90;99.90;;;;;;4970243;28;20261;-77
2020/12/19 10:26:04;;;;;;;8.13;6.83;;;6.00;99.90;;;;;;4973908;28;20656;-77
2020/12/19 10:28:30;;;;;;;15.93;14.73;;;6.10;99.90;;;;;;4971931;28;20260;-78
2020/12/19 10:30:57;;;;;;;7.90;6.90;;;6.10;99.90;;;;;;4972774;28;20222;-78
2020/12/19 10:33:23;;;;;;;14.80;13.53;;;6.20;99.90;;;;;;4966785;28;20269;-78
2020/12/19 10:35:50;;;;;;;8.30;6.47;;;6.20;99.90;;;;;;4970171;28;20683;-78
2020/12/19 10:38:18;;;;;;;12.73;11.73;;;6.30;99.90;;;;;;4972241;28;20337;-78
2020/12/19 10:40:44;;;;;;;11.87;10.93;;;6.30;99.90;;;;;;4985003;28;20595;-78
2020/12/19 10:43:10;;;;;;;14.33;13.20;;;6.30;99.90;;;;;;4969028;28;20236;-78
2020/12/19 10:45:37;;;;;;;12.50;11.50;;;6.40;99.90;;;;;;4975043;28;20301;-77
2020/12/19 10:48:04;;;;;;;15.23;14.03;;;6.50;99.90;;;;;;4985147;28;20645;-78
2020/12/19 10:50:30;;;;;;;10.47;9.50;;;6.50;99.90;;;;;;4970079;28;20202;-78
2020/12/19 10:52:57;;;;;;;11.70;10.70;;;6.50;99.90;;;;;;4977753;28;20230;-77
2020/12/19 10:55:23;;;;;;;8.67;7.87;;;6.60;99.90;;;;;;4972529;28;20305;-78
2020/12/19 10:57:49;;;;;;;14.00;13.00;;;6.70;99.90;;;;;;4972240;28;20769;-78
2020/12/19 11:00:15;;;;;;;15.20;14.20;;;6.80;99.90;;;;;;4976612;28;20255;-78
2020/12/19 11:02:41;;;;;;;14.17;13.27;;;6.80;99.90;;;;;;4985876;28;20233;-77
2020/12/19 11:05:09;;;;;;;11.30;10.50;;;6.90;99.90;;;;;;4972025;28;20663;-78
2020/12/19 11:07:35;;;;;;;13.57;12.60;;;7.00;99.90;;;;;;4974579;28;20312;-78
2020/12/19 11:10:01;;;;;;;13.97;13.03;;;7.10;99.90;;;;;;4982828;28;20653;-79
2020/12/19 11:12:27;;;;;;;13.83;12.83;;;7.20;99.90;;;;;;4976913;28;20204;-78
2020/12/19 11:14:54;;;;;;;13.33;12.50;;;7.30;99.90;;;;;;4974092;28;20206;-78
2020/12/19 11:17:21;;;;;;;10.30;9.50;;;7.40;99.90;;;;;;4993419;28;20313;-78
2020/12/19 11:19:47;;;;;;;14.77;13.73;;;7.40;99.90;;;;;;4978426;28;20295;-79
2020/12/19 11:22:14;;;;;;;14.10;13.10;;;7.50;99.90;;;;;;4980644;28;20297;-78
2020/12/19 11:24:40;;;;;;;13.93;12.93;;;7.60;99.90;;;;;;4992184;28;20292;-78
2020/12/19 11:27:06;;;;;;;14.30;13.30;;;7.70;99.90;;;;;;4990128;28;20356;-78
2020/12/19 11:29:33;;;;;;;14.90;13.90;;;7.80;99.90;;;;;;4979914;28;20206;-78
2020/12/19 11:32:03;;;;;;;11.70;10.90;;;7.80;99.90;;;;;;4980353;28;20237;-78
2020/12/19 11:34:31;;;;;;;13.87;12.77;;;7.90;99.90;;;;;;4980279;28;20379;-78
2020/12/19 11:36:57;;;;;;;14.10;13.20;;;8.00;99.90;;;;;;4970975;28;20353;-77
2020/12/19 11:39:24;;;;;;;13.80;12.90;;;8.10;99.90;;;;;;4980573;28;20738;-78
2020/12/19 11:41:50;;;;;;;13.93;13.03;;;8.20;99.90;;;;;;4981843;28;20318;-78
2020/12/19 11:44:17;;;;;;;9.80;9.00;;;8.40;99.90;;;;;;4980648;28;20555;-78
2020/12/19 11:46:45;;;;;;;13.10;12.20;;;8.50;99.90;;;;;;4983016;28;20219;-78
2020/12/19 11:49:11;;;;;;;12.90;12.10;;;8.60;99.90;;;;;;4985750;28;20210;-79
2020/12/19 11:51:38;;;;;;;13.47;12.67;;;8.70;99.90;;;;;;4981045;28;20219;-77
2020/12/19 11:54:04;;;;;;;12.60;11.80;;;8.80;99.90;;;;;;4986097;28;20199;-77
2020/12/19 11:56:31;;;;;;;12.13;11.27;;;8.90;99.90;;;;;;4994945;28;20203;-78
2020/12/19 11:58:57;;;;;;;12.03;11.23;;;8.90;99.90;;;;;;4978319;28;20215;-78
2020/12/19 12:01:26;;;;;;;12.80;11.90;;;9.00;99.90;;;;;;4982370;28;20244;-77
2020/12/19 12:03:53;;;;;;;12.83;11.93;;;9.00;99.90;;;;;;4980120;28;20196;-79
2020/12/19 12:06:26;;;;;;;12.93;12.00;;;9.00;99.90;;;;;;4972805;28;20208;-79
2020/12/19 12:08:52;;;;;;;7.03;6.33;;;9.10;99.90;;;;;;4985222;28;20248;-78
2020/12/19 12:11:24;;;;;;;14.73;13.63;;;9.10;99.90;;;;;;4979931;28;20230;-78
2020/12/19 12:13:52;;;;;;;14.63;13.63;;;9.10;99.90;;;;;;4978826;28;20251;-79
2020/12/19 12:16:18;;;;;;;14.47;13.47;;;9.20;99.90;;;;;;4977596;28;20220;-79
2020/12/19 12:18:45;;;;;;;15.03;13.73;;;9.30;99.90;;;;;;4979739;28;20263;-80
2020/12/19 12:21:11;;;;;;;14.93;13.90;;;9.30;99.90;;;;;;4979487;28;20299;-77
2020/12/19 12:23:37;;;;;;;14.30;13.20;;;9.40;99.90;;;;;;4981318;28;20241;-76
2020/12/19 12:26:03;;;;;;;15.47;14.37;;;9.50;99.90;;;;;;4974089;28;20279;-77
2020/12/19 12:28:30;;;;;;;13.70;12.80;;;9.60;99.90;;;;;;4977027;28;20303;-77
2020/12/19 12:30:57;;;;;;;13.80;12.90;;;9.70;99.90;;;;;;4976335;28;20198;-78
2020/12/19 12:33:24;;;;;;;14.67;13.60;;;9.80;99.90;;;;;;4974075;28;20198;-77
2020/12/19 12:35:50;;;;;;;14.17;13.27;;;9.80;99.90;;;;;;4979911;28;20235;-77
2020/12/19 12:38:16;;;;;;;13.80;12.87;;;9.90;99.90;;;;;;4977864;28;20297;-77
2020/12/19 12:40:43;;;;;;;13.43;12.53;;;9.80;99.90;;;;;;4973870;28;20308;-77